sensor_id;sensor_type;location;lat;lon;timestamp;temperature;humidity
15087;DHT22;7642;48.478;8.952;2022-08-02T00:02:10;17.90;99.90
15087;DHT22;7642;48.478;8.952;2022-08-02T00:04:36;17.80;99.90
15087;DHT22;7642;48.478;8.952;2022-08-02T00:07:01;17.90;99.90
15087;DHT22;7642;48.478;8.952;2022-08-02T00:09:27;17.90;99.90
15087;DHT22;7642;48.478;8.952;2022-08-02T00:11:53;18.00;99.90
15087;DHT22;7642;48.478;8.952;2022-08-02T00:14:19;18.00;99.90
15087;DHT22;7642;48.478;8.952;2022-08-02T00:16:44;18.60;99.90
15087;DHT22;7642;48.478;8.952;2022-08-02T00:19:10;17.90;99.90
15087;DHT22;7642;48.478;8.952;2022-08-02T00:21:36;17.80;99.90
15087;DHT22;7642;48.478;8.952;2022-08-02T00:24:01;17.90;99.90
15087;DHT22;7642;48.478;8.952;2022-08-02T00:26:27;17.90;99.90
15087;DHT22;7642;48.478;8.952;2022-08-02T00:28:52;18.00;99.90
15087;DHT22;7642;48.478;8.952;2022-08-02T00:31:18;18.00;99.90
15087;DHT22;7642;48.478;8.952;2022-08-02T00:33:44;18.00;99.90
15087;DHT22;7642;48.478;8.952;2022-08-02T00:36:09;18.10;99.90
15087;DHT22;7642;48.478;8.952;2022-08-02T00:38:35;18.10;99.90
15087;DHT22;7642;48.478;8.952;2022-08-02T00:41:00;18.10;99.90
15087;DHT22;7642;48.478;8.952;2022-08-02T00:43:26;18.20;99.90
15087;DHT22;7642;48.478;8.952;2022-08-02T00:45:52;18.30;99.90
15087;DHT22;7642;48.478;8.952;2022-08-02T00:48:17;18.30;99.90
15087;DHT22;7642;48.478;8.952;2022-08-02T00:50:43;18.30;99.90
15087;DHT22;7642;48.478;8.952;2022-08-02T00:53:09;18.30;99.90
15087;DHT22;7642;48.478;8.952;2022-08-02T00:55:36;18.30;99.90
15087;DHT22;7642;48.478;8.952;2022-08-02T00:58:02;18.30;99.90
15087;DHT22;7642;48.478;8.952;2022-08-02T01:00:28;18.10;99.90
15087;DHT22;7642;48.478;8.952;2022-08-02T01:02:54;18.10;99.90
15087;DHT22;7642;48.478;8.952;2022-08-02T01:05:19;18.00;99.90
15087;DHT22;7642;48.478;8.952;2022-08-02T01:07:45;18.00;99.90
15087;DHT22;7642;48.478;8.952;2022-08-02T01:10:11;18.00;99.90
15087;DHT22;7642;48.478;8.952;2022-08-02T01:12:36;17.90;99.90
15087;DHT22;7642;48.478;8.952;2022-08-02T01:15:07;17.90;99.90
15087;DHT22;7642;48.478;8.952;2022-08-02T01:20:40;17.80;99.90
15087;DHT22;7642;48.478;8.952;2022-08-02T01:28:53;17.60;99.90
15087;DHT22;7642;48.478;8.952;2022-08-02T01:36:53;17.50;99.90
15087;DHT22;7642;48.478;8.952;2022-08-02T01:39:23;17.60;99.90
15087;DHT22;7642;48.478;8.952;2022-08-02T01:41:52;17.60;99.90
15087;DHT22;7642;48.478;8.952;2022-08-02T01:44:20;18.00;99.90
15087;DHT22;7642;48.478;8.952;2022-08-02T01:46:47;17.60;99.90
15087;DHT22;7642;48.478;8.952;2022-08-02T01:49:16;17.50;99.90
15087;DHT22;7642;48.478;8.952;2022-08-02T01:51:45;17.40;99.90
15087;DHT22;7642;48.478;8.952;2022-08-02T01:54:32;17.40;99.90
15087;DHT22;7642;48.478;8.952;2022-08-02T01:57:01;17.40;99.90
15087;DHT22;7642;48.478;8.952;2022-08-02T01:59:29;17.30;99.90
15087;DHT22;7642;48.478;8.952;2022-08-02T02:01:57;17.30;99.90
15087;DHT22;7642;48.478;8.952;2022-08-02T02:04:27;17.90;99.90
15087;DHT22;7642;48.478;8.952;2022-08-02T02:06:55;17.30;99.90
15087;DHT22;7642;48.478;8.952;2022-08-02T02:09:22;17.30;99.90
15087;DHT22;7642;48.478;8.952;2022-08-02T02:11:50;17.40;99.90
15087;DHT22;7642;48.478;8.952;2022-08-02T02:14:17;17.30;99.90
15087;DHT22;7642;48.478;8.952;2022-08-02T02:16:45;17.50;99.90
15087;DHT22;7642;48.478;8.952;2022-08-02T02:19:12;17.30;99.90
15087;DHT22;7642;48.478;8.952;2022-08-02T02:21:40;17.20;99.90
15087;DHT22;7642;48.478;8.952;2022-08-02T02:24:06;17.90;99.90
15087;DHT22;7642;48.478;8.952;2022-08-02T02:26:34;17.20;99.90
15087;DHT22;7642;48.478;8.952;2022-08-02T02:29:01;17.20;99.90
15087;DHT22;7642;48.478;8.952;2022-08-02T02:31:30;17.10;99.90
15087;DHT22;7642;48.478;8.952;2022-08-02T02:34:25;17.10;99.90
15087;DHT22;7642;48.478;8.952;2022-08-02T02:36:52;17.10;99.90
15087;DHT22;7642;48.478;8.952;2022-08-02T02:39:22;17.10;99.90
15087;DHT22;7642;48.478;8.952;2022-08-02T02:41:50;17.00;99.90
15087;DHT22;7642;48.478;8.952;2022-08-02T02:44:18;17.00;99.90
15087;DHT22;7642;48.478;8.952;2022-08-02T02:46:47;17.00;99.90
15087;DHT22;7642;48.478;8.952;2022-08-02T02:49:14;17.00;99.90
15087;DHT22;7642;48.478;8.952;2022-08-02T02:51:41;17.10;99.90
15087;DHT22;7642;48.478;8.952;2022-08-02T02:54:09;17.10;99.90
15087;DHT22;7642;48.478;8.952;2022-08-02T02:56:37;17.00;99.90
15087;DHT22;7642;48.478;8.952;2022-08-02T02:59:03;17.40;99.90
15087;DHT22;7642;48.478;8.952;2022-08-02T03:01:29;17.00;99.90
15087;DHT22;7642;48.478;8.952;2022-08-02T03:03:59;16.90;99.90
15087;DHT22;7642;48.478;8.952;2022-08-02T03:06:24;16.90;99.90
15087;DHT22;7642;48.478;8.952;2022-08-02T03:08:50;16.90;99.90
15087;DHT22;7642;48.478;8.952;2022-08-02T03:11:16;16.90;99.90
15087;DHT22;7642;48.478;8.952;2022-08-02T03:13:42;16.90;99.90
15087;DHT22;7642;48.478;8.952;2022-08-02T03:16:10;16.90;99.90
15087;DHT22;7642;48.478;8.952;2022-08-02T03:18:37;16.90;99.90
15087;DHT22;7642;48.478;8.952;2022-08-02T03:21:06;16.80;99.90
15087;DHT22;7642;48.478;8.952;2022-08-02T03:23:32;16.90;99.90
15087;DHT22;7642;48.478;8.952;2022-08-02T03:25:58;16.90;99.90
15087;DHT22;7642;48.478;8.952;2022-08-02T03:28:24;16.90;99.90
15087;DHT22;7642;48.478;8.952;2022-08-02T03:30:50;16.80;99.90
15087;DHT22;7642;48.478;8.952;2022-08-02T03:33:18;16.80;99.90
15087;DHT22;7642;48.478;8.952;2022-08-02T03:35:46;16.80;99.90
15087;DHT22;7642;48.478;8.952;2022-08-02T03:38:12;16.80;99.90
15087;DHT22;7642;48.478;8.952;2022-08-02T03:40:42;16.90;99.90
15087;DHT22;7642;48.478;8.952;2022-08-02T03:43:09;16.70;99.90
15087;DHT22;7642;48.478;8.952;2022-08-02T03:45:38;16.70;99.90
15087;DHT22;7642;48.478;8.952;2022-08-02T03:48:06;16.70;99.90
15087;DHT22;7642;48.478;8.952;2022-08-02T03:50:32;16.70;99.90
15087;DHT22;7642;48.478;8.952;2022-08-02T03:52:58;16.70;99.90
15087;DHT22;7642;48.478;8.952;2022-08-02T03:55:24;16.60;99.90
15087;DHT22;7642;48.478;8.952;2022-08-02T03:57:50;17.10;99.90
15087;DHT22;7642;48.478;8.952;2022-08-02T04:00:20;16.80;99.90
15087;DHT22;7642;48.478;8.952;2022-08-02T04:02:47;16.60;99.90
15087;DHT22;7642;48.478;8.952;2022-08-02T04:05:14;16.50;99.90
15087;DHT22;7642;48.478;8.952;2022-08-02T04:07:39;16.50;99.90
15087;DHT22;7642;48.478;8.952;2022-08-02T04:10:05;16.50;99.90
15087;DHT22;7642;48.478;8.952;2022-08-02T04:12:31;16.40;99.90
15087;DHT22;7642;48.478;8.952;2022-08-02T04:14:58;16.40;99.90
15087;DHT22;7642;48.478;8.952;2022-08-02T04:17:24;16.50;99.90
15087;DHT22;7642;48.478;8.952;2022-08-02T04:20:02;16.60;99.90
15087;DHT22;7642;48.478;8.952;2022-08-02T04:22:46;16.60;99.90
15087;DHT22;7642;48.478;8.952;2022-08-02T04:25:12;16.60;99.90
15087;DHT22;7642;48.478;8.952;2022-08-02T04:27:39;16.60;99.90
15087;DHT22;7642;48.478;8.952;2022-08-02T04:30:05;16.50;99.90
15087;DHT22;7642;48.478;8.952;2022-08-02T04:32:32;16.50;99.90
15087;DHT22;7642;48.478;8.952;2022-08-02T04:34:58;16.60;99.90
15087;DHT22;7642;48.478;8.952;2022-08-02T04:37:25;16.70;99.90
15087;DHT22;7642;48.478;8.952;2022-08-02T04:39:51;16.80;99.90
15087;DHT22;7642;48.478;8.952;2022-08-02T04:42:20;16.90;99.90
15087;DHT22;7642;48.478;8.952;2022-08-02T04:47:12;13.80;99.90
15087;DHT22;7642;48.478;8.952;2022-08-02T04:49:38;17.00;99.90
15087;DHT22;7642;48.478;8.952;2022-08-02T04:52:03;17.10;99.90
15087;DHT22;7642;48.478;8.952;2022-08-02T04:54:29;17.60;99.90
15087;DHT22;7642;48.478;8.952;2022-08-02T04:56:55;17.10;99.90
15087;DHT22;7642;48.478;8.952;2022-08-02T04:59:20;17.70;99.90
15087;DHT22;7642;48.478;8.952;2022-08-02T05:01:46;17.20;99.90
15087;DHT22;7642;48.478;8.952;2022-08-02T05:04:12;17.30;99.90
15087;DHT22;7642;48.478;8.952;2022-08-02T05:06:38;17.30;99.90
15087;DHT22;7642;48.478;8.952;2022-08-02T05:09:04;17.30;99.90
15087;DHT22;7642;48.478;8.952;2022-08-02T05:11:29;17.30;99.90
15087;DHT22;7642;48.478;8.952;2022-08-02T05:13:55;17.40;99.90
15087;DHT22;7642;48.478;8.952;2022-08-02T05:16:21;17.40;99.90
15087;DHT22;7642;48.478;8.952;2022-08-02T05:18:46;17.70;99.90
15087;DHT22;7642;48.478;8.952;2022-08-02T05:21:12;17.80;99.90
15087;DHT22;7642;48.478;8.952;2022-08-02T05:23:38;17.80;99.90
15087;DHT22;7642;48.478;8.952;2022-08-02T05:26:03;18.00;99.90
15087;DHT22;7642;48.478;8.952;2022-08-02T05:28:29;18.00;99.90
15087;DHT22;7642;48.478;8.952;2022-08-02T05:30:54;18.10;99.90
15087;DHT22;7642;48.478;8.952;2022-08-02T05:33:20;18.10;99.90
15087;DHT22;7642;48.478;8.952;2022-08-02T05:35:45;18.10;99.90
15087;DHT22;7642;48.478;8.952;2022-08-02T05:38:11;18.10;99.90
15087;DHT22;7642;48.478;8.952;2022-08-02T05:40:37;18.10;99.90
15087;DHT22;7642;48.478;8.952;2022-08-02T05:43:09;18.10;99.90
15087;DHT22;7642;48.478;8.952;2022-08-02T05:45:35;18.10;99.90
15087;DHT22;7642;48.478;8.952;2022-08-02T05:48:00;18.10;99.90
15087;DHT22;7642;48.478;8.952;2022-08-02T05:50:26;18.20;99.90
15087;DHT22;7642;48.478;8.952;2022-08-02T05:56:02;18.40;99.90
15087;DHT22;7642;48.478;8.952;2022-08-02T05:58:40;18.40;99.90
15087;DHT22;7642;48.478;8.952;2022-08-02T06:01:11;18.40;99.90
15087;DHT22;7642;48.478;8.952;2022-08-02T06:03:42;18.50;99.90
15087;DHT22;7642;48.478;8.952;2022-08-02T06:06:14;18.60;99.90
15087;DHT22;7642;48.478;8.952;2022-08-02T06:08:47;18.70;99.90
15087;DHT22;7642;48.478;8.952;2022-08-02T06:11:17;18.70;99.90
15087;DHT22;7642;48.478;8.952;2022-08-02T06:13:45;18.70;99.90
15087;DHT22;7642;48.478;8.952;2022-08-02T06:16:11;18.70;99.90
15087;DHT22;7642;48.478;8.952;2022-08-02T06:18:40;18.70;99.90
15087;DHT22;7642;48.478;8.952;2022-08-02T06:23:33;18.80;99.90
15087;DHT22;7642;48.478;8.952;2022-08-02T06:26:06;18.60;99.90
15087;DHT22;7642;48.478;8.952;2022-08-02T06:28:38;18.60;99.90
15087;DHT22;7642;48.478;8.952;2022-08-02T06:31:08;18.70;99.90
15087;DHT22;7642;48.478;8.952;2022-08-02T06:33:34;18.90;99.90
15087;DHT22;7642;48.478;8.952;2022-08-02T06:36:09;18.90;99.90
15087;DHT22;7642;48.478;8.952;2022-08-02T06:38:43;19.30;99.90
15087;DHT22;7642;48.478;8.952;2022-08-02T06:41:14;19.30;99.90
15087;DHT22;7642;48.478;8.952;2022-08-02T06:43:43;19.50;99.90
15087;DHT22;7642;48.478;8.952;2022-08-02T06:46:10;19.70;99.90
15087;DHT22;7642;48.478;8.952;2022-08-02T06:48:35;19.70;99.90
15087;DHT22;7642;48.478;8.952;2022-08-02T06:51:02;19.70;99.90
15087;DHT22;7642;48.478;8.952;2022-08-02T06:53:28;19.80;99.90
15087;DHT22;7642;48.478;8.952;2022-08-02T06:55:54;19.90;99.90
15087;DHT22;7642;48.478;8.952;2022-08-02T06:58:19;19.90;99.90
15087;DHT22;7642;48.478;8.952;2022-08-02T07:00:45;20.00;99.90
15087;DHT22;7642;48.478;8.952;2022-08-02T07:03:11;20.10;99.90
15087;DHT22;7642;48.478;8.952;2022-08-02T07:05:37;20.10;99.90
15087;DHT22;7642;48.478;8.952;2022-08-02T07:08:03;20.20;99.90
15087;DHT22;7642;48.478;8.952;2022-08-02T07:10:29;20.30;99.90
15087;DHT22;7642;48.478;8.952;2022-08-02T07:12:54;20.60;99.90
15087;DHT22;7642;48.478;8.952;2022-08-02T07:15:20;20.80;99.90
15087;DHT22;7642;48.478;8.952;2022-08-02T07:17:46;20.80;99.90
15087;DHT22;7642;48.478;8.952;2022-08-02T07:20:11;20.80;99.90
15087;DHT22;7642;48.478;8.952;2022-08-02T07:22:38;20.70;99.90
15087;DHT22;7642;48.478;8.952;2022-08-02T07:25:04;20.90;99.90
15087;DHT22;7642;48.478;8.952;2022-08-02T07:27:30;21.20;99.90
15087;DHT22;7642;48.478;8.952;2022-08-02T07:29:57;21.40;99.90
15087;DHT22;7642;48.478;8.952;2022-08-02T07:32:24;21.70;99.90
15087;DHT22;7642;48.478;8.952;2022-08-02T07:34:51;21.60;99.90
15087;DHT22;7642;48.478;8.952;2022-08-02T07:37:18;21.90;99.90
15087;DHT22;7642;48.478;8.952;2022-08-02T07:39:43;22.00;99.90
15087;DHT22;7642;48.478;8.952;2022-08-02T07:42:09;21.60;99.90
15087;DHT22;7642;48.478;8.952;2022-08-02T07:44:35;21.90;99.90
15087;DHT22;7642;48.478;8.952;2022-08-02T07:47:01;22.20;99.90
15087;DHT22;7642;48.478;8.952;2022-08-02T07:49:27;22.20;99.90
15087;DHT22;7642;48.478;8.952;2022-08-02T07:51:53;22.50;99.90
15087;DHT22;7642;48.478;8.952;2022-08-02T07:54:20;22.70;99.90
15087;DHT22;7642;48.478;8.952;2022-08-02T07:56:46;22.70;99.90
15087;DHT22;7642;48.478;8.952;2022-08-02T07:59:11;22.70;99.90
15087;DHT22;7642;48.478;8.952;2022-08-02T08:01:37;22.60;99.90
15087;DHT22;7642;48.478;8.952;2022-08-02T08:04:03;22.70;99.90
15087;DHT22;7642;48.478;8.952;2022-08-02T08:06:29;22.90;99.90
15087;DHT22;7642;48.478;8.952;2022-08-02T08:08:56;22.80;99.90
15087;DHT22;7642;48.478;8.952;2022-08-02T08:11:22;23.00;99.90
15087;DHT22;7642;48.478;8.952;2022-08-02T08:13:48;23.00;99.90
15087;DHT22;7642;48.478;8.952;2022-08-02T08:16:13;23.20;99.90
15087;DHT22;7642;48.478;8.952;2022-08-02T08:18:39;23.20;99.90
15087;DHT22;7642;48.478;8.952;2022-08-02T08:21:04;23.20;99.90
15087;DHT22;7642;48.478;8.952;2022-08-02T08:23:30;23.10;99.90
15087;DHT22;7642;48.478;8.952;2022-08-02T08:25:56;23.30;99.90
15087;DHT22;7642;48.478;8.952;2022-08-02T08:28:22;23.50;99.90
15087;DHT22;7642;48.478;8.952;2022-08-02T08:30:47;23.80;99.90
15087;DHT22;7642;48.478;8.952;2022-08-02T08:33:13;23.80;99.90
15087;DHT22;7642;48.478;8.952;2022-08-02T08:35:39;23.70;99.90
15087;DHT22;7642;48.478;8.952;2022-08-02T08:38:05;24.00;99.90
15087;DHT22;7642;48.478;8.952;2022-08-02T08:40:30;24.00;99.90
15087;DHT22;7642;48.478;8.952;2022-08-02T08:42:56;23.70;99.90
15087;DHT22;7642;48.478;8.952;2022-08-02T08:45:22;24.00;99.90
15087;DHT22;7642;48.478;8.952;2022-08-02T08:47:55;24.20;99.90
15087;DHT22;7642;48.478;8.952;2022-08-02T08:50:25;24.20;99.90
15087;DHT22;7642;48.478;8.952;2022-08-02T08:53:05;24.30;99.90
15087;DHT22;7642;48.478;8.952;2022-08-02T08:55:33;24.40;99.90
15087;DHT22;7642;48.478;8.952;2022-08-02T08:58:00;24.20;99.90
15087;DHT22;7642;48.478;8.952;2022-08-02T09:00:29;24.40;99.90
15087;DHT22;7642;48.478;8.952;2022-08-02T09:02:55;24.70;99.90
15087;DHT22;7642;48.478;8.952;2022-08-02T09:05:22;24.50;99.90
15087;DHT22;7642;48.478;8.952;2022-08-02T09:07:49;24.80;99.90
15087;DHT22;7642;48.478;8.952;2022-08-02T09:13:18;24.90;99.90
15087;DHT22;7642;48.478;8.952;2022-08-02T09:15:55;25.20;99.90
15087;DHT22;7642;48.478;8.952;2022-08-02T09:18:32;25.50;99.90
15087;DHT22;7642;48.478;8.952;2022-08-02T09:21:00;25.80;99.90
15087;DHT22;7642;48.478;8.952;2022-08-02T09:23:36;26.00;99.90
15087;DHT22;7642;48.478;8.952;2022-08-02T09:26:04;26.10;99.90
15087;DHT22;7642;48.478;8.952;2022-08-02T09:28:33;26.40;99.90
15087;DHT22;7642;48.478;8.952;2022-08-02T09:31:08;26.50;99.90
15087;DHT22;7642;48.478;8.952;2022-08-02T09:33:35;26.70;99.90
15087;DHT22;7642;48.478;8.952;2022-08-02T09:36:12;26.50;99.90
15087;DHT22;7642;48.478;8.952;2022-08-02T09:38:38;26.40;99.90
15087;DHT22;7642;48.478;8.952;2022-08-02T09:41:06;26.10;99.90
15087;DHT22;7642;48.478;8.952;2022-08-02T09:43:43;26.10;99.90
15087;DHT22;7642;48.478;8.952;2022-08-02T09:46:18;26.30;99.90
15087;DHT22;7642;48.478;8.952;2022-08-02T09:48:54;26.70;99.90
15087;DHT22;7642;48.478;8.952;2022-08-02T09:51:46;26.70;99.90
15087;DHT22;7642;48.478;8.952;2022-08-02T09:54:28;27.00;99.90
15087;DHT22;7642;48.478;8.952;2022-08-02T09:56:59;26.90;99.90
15087;DHT22;7642;48.478;8.952;2022-08-02T09:59:26;26.70;99.90
15087;DHT22;7642;48.478;8.952;2022-08-02T10:01:53;26.60;99.90
15087;DHT22;7642;48.478;8.952;2022-08-02T10:04:22;26.80;99.90
15087;DHT22;7642;48.478;8.952;2022-08-02T10:06:49;26.80;99.90
15087;DHT22;7642;48.478;8.952;2022-08-02T10:09:15;26.90;99.90
15087;DHT22;7642;48.478;8.952;2022-08-02T10:11:41;27.10;99.90
15087;DHT22;7642;48.478;8.952;2022-08-02T10:14:09;27.60;99.90
15087;DHT22;7642;48.478;8.952;2022-08-02T10:16:44;27.50;99.20
15087;DHT22;7642;48.478;8.952;2022-08-02T10:19:10;27.50;99.90
15087;DHT22;7642;48.478;8.952;2022-08-02T10:21:36;27.60;99.40
15087;DHT22;7642;48.478;8.952;2022-08-02T10:24:08;27.70;99.90
15087;DHT22;7642;48.478;8.952;2022-08-02T10:26:36;28.00;99.90
15087;DHT22;7642;48.478;8.952;2022-08-02T10:29:03;28.20;99.90
15087;DHT22;7642;48.478;8.952;2022-08-02T10:32:00;28.10;99.90
15087;DHT22;7642;48.478;8.952;2022-08-02T10:34:32;28.60;99.50
15087;DHT22;7642;48.478;8.952;2022-08-02T10:37:05;28.90;98.30
15087;DHT22;7642;48.478;8.952;2022-08-02T10:39:41;29.10;97.20
15087;DHT22;7642;48.478;8.952;2022-08-02T10:42:07;28.90;96.90
15087;DHT22;7642;48.478;8.952;2022-08-02T10:44:35;28.90;96.50
15087;DHT22;7642;48.478;8.952;2022-08-02T10:49:52;28.80;98.60
15087;DHT22;7642;48.478;8.952;2022-08-02T10:52:29;28.90;97.60
15087;DHT22;7642;48.478;8.952;2022-08-02T10:54:58;28.90;97.60
15087;DHT22;7642;48.478;8.952;2022-08-02T10:57:29;29.20;98.10
15087;DHT22;7642;48.478;8.952;2022-08-02T11:00:11;28.70;97.20
15087;DHT22;7642;48.478;8.952;2022-08-02T11:02:42;27.80;97.50
15087;DHT22;7642;48.478;8.952;2022-08-02T11:07:55;28.70;98.90
15087;DHT22;7642;48.478;8.952;2022-08-02T11:10:38;28.70;97.10
15087;DHT22;7642;48.478;8.952;2022-08-02T11:13:13;29.30;97.60
15087;DHT22;7642;48.478;8.952;2022-08-02T11:16:01;29.50;95.40
15087;DHT22;7642;48.478;8.952;2022-08-02T11:23:52;29.30;96.20
15087;DHT22;7642;48.478;8.952;2022-08-02T11:26:41;29.40;95.00
15087;DHT22;7642;48.478;8.952;2022-08-02T11:29:07;29.30;96.70
15087;DHT22;7642;48.478;8.952;2022-08-02T11:31:41;29.70;95.70
15087;DHT22;7642;48.478;8.952;2022-08-02T11:34:07;29.80;93.60
15087;DHT22;7642;48.478;8.952;2022-08-02T11:36:41;29.60;92.30
15087;DHT22;7642;48.478;8.952;2022-08-02T11:39:11;29.50;92.60
15087;DHT22;7642;48.478;8.952;2022-08-02T11:41:37;29.20;93.50
15087;DHT22;7642;48.478;8.952;2022-08-02T11:44:03;28.90;92.90
15087;DHT22;7642;48.478;8.952;2022-08-02T11:46:29;28.70;93.00
15087;DHT22;7642;48.478;8.952;2022-08-02T11:48:54;28.70;93.30
15087;DHT22;7642;48.478;8.952;2022-08-02T11:51:20;28.80;93.50
15087;DHT22;7642;48.478;8.952;2022-08-02T11:53:47;28.80;93.30
15087;DHT22;7642;48.478;8.952;2022-08-02T11:56:14;29.00;92.80
15087;DHT22;7642;48.478;8.952;2022-08-02T11:58:40;28.80;96.20
15087;DHT22;7642;48.478;8.952;2022-08-02T12:01:06;29.10;93.20
15087;DHT22;7642;48.478;8.952;2022-08-02T12:03:37;29.10;93.50
15087;DHT22;7642;48.478;8.952;2022-08-02T12:06:03;29.40;92.70
15087;DHT22;7642;48.478;8.952;2022-08-02T12:08:30;29.50;92.50
15087;DHT22;7642;48.478;8.952;2022-08-02T12:10:56;29.30;93.60
15087;DHT22;7642;48.478;8.952;2022-08-02T12:13:24;28.90;93.00
15087;DHT22;7642;48.478;8.952;2022-08-02T12:15:50;29.20;92.10
15087;DHT22;7642;48.478;8.952;2022-08-02T12:18:18;29.20;92.40
15087;DHT22;7642;48.478;8.952;2022-08-02T12:21:08;29.50;92.40
15087;DHT22;7642;48.478;8.952;2022-08-02T12:23:44;29.40;91.70
15087;DHT22;7642;48.478;8.952;2022-08-02T12:26:10;29.50;92.40
15087;DHT22;7642;48.478;8.952;2022-08-02T12:28:37;29.60;91.70
15087;DHT22;7642;48.478;8.952;2022-08-02T12:31:05;29.90;93.50
15087;DHT22;7642;48.478;8.952;2022-08-02T12:33:51;30.20;91.40
15087;DHT22;7642;48.478;8.952;2022-08-02T12:36:22;30.40;91.00
15087;DHT22;7642;48.478;8.952;2022-08-02T12:38:55;30.70;92.00
15087;DHT22;7642;48.478;8.952;2022-08-02T12:41:21;30.90;90.10
15087;DHT22;7642;48.478;8.952;2022-08-02T12:43:49;30.70;90.10
15087;DHT22;7642;48.478;8.952;2022-08-02T12:46:17;30.80;88.50
15087;DHT22;7642;48.478;8.952;2022-08-02T12:48:43;30.70;89.00
15087;DHT22;7642;48.478;8.952;2022-08-02T12:51:27;30.80;90.10
15087;DHT22;7642;48.478;8.952;2022-08-02T12:53:54;31.10;89.00
15087;DHT22;7642;48.478;8.952;2022-08-02T12:56:37;31.00;88.80
15087;DHT22;7642;48.478;8.952;2022-08-02T12:59:03;30.90;90.30
15087;DHT22;7642;48.478;8.952;2022-08-02T13:01:29;31.30;90.60
15087;DHT22;7642;48.478;8.952;2022-08-02T13:03:55;31.10;90.70
15087;DHT22;7642;48.478;8.952;2022-08-02T13:06:21;31.60;89.80
15087;DHT22;7642;48.478;8.952;2022-08-02T13:08:48;32.00;87.60
15087;DHT22;7642;48.478;8.952;2022-08-02T13:11:14;32.00;87.40
15087;DHT22;7642;48.478;8.952;2022-08-02T13:13:40;31.90;91.20
15087;DHT22;7642;48.478;8.952;2022-08-02T13:16:06;32.20;90.30
15087;DHT22;7642;48.478;8.952;2022-08-02T13:18:33;32.20;87.60
15087;DHT22;7642;48.478;8.952;2022-08-02T13:20:58;32.20;88.60
15087;DHT22;7642;48.478;8.952;2022-08-02T13:23:24;32.10;86.80
15087;DHT22;7642;48.478;8.952;2022-08-02T13:25:50;32.10;86.30
15087;DHT22;7642;48.478;8.952;2022-08-02T13:28:17;31.70;86.10
15087;DHT22;7642;48.478;8.952;2022-08-02T13:30:43;31.80;86.50
15087;DHT22;7642;48.478;8.952;2022-08-02T13:33:10;31.80;86.90
15087;DHT22;7642;48.478;8.952;2022-08-02T13:35:37;32.00;86.90
15087;DHT22;7642;48.478;8.952;2022-08-02T13:38:02;31.70;86.30
15087;DHT22;7642;48.478;8.952;2022-08-02T13:40:29;31.30;85.90
15087;DHT22;7642;48.478;8.952;2022-08-02T13:42:54;31.60;89.80
15087;DHT22;7642;48.478;8.952;2022-08-02T13:45:20;32.10;86.20
15087;DHT22;7642;48.478;8.952;2022-08-02T13:47:46;32.40;85.10
15087;DHT22;7642;48.478;8.952;2022-08-02T13:50:12;32.70;83.50
15087;DHT22;7642;48.478;8.952;2022-08-02T13:52:38;31.90;84.20
15087;DHT22;7642;48.478;8.952;2022-08-02T13:55:04;31.80;84.60
15087;DHT22;7642;48.478;8.952;2022-08-02T13:57:29;31.80;86.20
15087;DHT22;7642;48.478;8.952;2022-08-02T13:59:55;32.20;87.90
15087;DHT22;7642;48.478;8.952;2022-08-02T14:02:21;32.40;83.80
15087;DHT22;7642;48.478;8.952;2022-08-02T14:04:46;32.70;84.40
15087;DHT22;7642;48.478;8.952;2022-08-02T14:07:12;32.90;84.10
15087;DHT22;7642;48.478;8.952;2022-08-02T14:09:38;32.80;83.40
15087;DHT22;7642;48.478;8.952;2022-08-02T14:12:04;32.60;82.20
15087;DHT22;7642;48.478;8.952;2022-08-02T14:14:30;32.60;82.60
15087;DHT22;7642;48.478;8.952;2022-08-02T14:16:56;32.60;83.10
15087;DHT22;7642;48.478;8.952;2022-08-02T14:19:22;32.60;88.60
15087;DHT22;7642;48.478;8.952;2022-08-02T14:21:48;32.90;85.20
15087;DHT22;7642;48.478;8.952;2022-08-02T14:24:15;32.80;83.50
15087;DHT22;7642;48.478;8.952;2022-08-02T14:26:41;32.40;82.40
15087;DHT22;7642;48.478;8.952;2022-08-02T14:29:07;32.40;84.80
15087;DHT22;7642;48.478;8.952;2022-08-02T14:31:33;32.60;85.30
15087;DHT22;7642;48.478;8.952;2022-08-02T14:33:59;32.70;83.20
15087;DHT22;7642;48.478;8.952;2022-08-02T14:36:24;32.90;84.20
15087;DHT22;7642;48.478;8.952;2022-08-02T14:38:50;33.30;84.40
15087;DHT22;7642;48.478;8.952;2022-08-02T14:41:15;33.30;84.70
15087;DHT22;7642;48.478;8.952;2022-08-02T14:43:41;33.60;82.00
15087;DHT22;7642;48.478;8.952;2022-08-02T14:46:26;33.60;84.60
15087;DHT22;7642;48.478;8.952;2022-08-02T14:48:51;33.60;80.00
15087;DHT22;7642;48.478;8.952;2022-08-02T14:51:17;33.30;83.90
15087;DHT22;7642;48.478;8.952;2022-08-02T14:53:43;32.70;80.70
15087;DHT22;7642;48.478;8.952;2022-08-02T14:56:08;32.50;82.90
15087;DHT22;7642;48.478;8.952;2022-08-02T14:58:34;32.50;81.90
15087;DHT22;7642;48.478;8.952;2022-08-02T15:00:59;32.30;83.30
15087;DHT22;7642;48.478;8.952;2022-08-02T15:03:25;32.60;83.60
15087;DHT22;7642;48.478;8.952;2022-08-02T15:05:51;32.80;83.60
15087;DHT22;7642;48.478;8.952;2022-08-02T15:08:16;33.00;84.20
15087;DHT22;7642;48.478;8.952;2022-08-02T15:10:42;33.20;83.20
15087;DHT22;7642;48.478;8.952;2022-08-02T15:13:08;33.20;83.60
15087;DHT22;7642;48.478;8.952;2022-08-02T15:15:34;33.50;83.20
15087;DHT22;7642;48.478;8.952;2022-08-02T15:17:59;33.60;84.00
15087;DHT22;7642;48.478;8.952;2022-08-02T15:20:25;33.70;81.20
15087;DHT22;7642;48.478;8.952;2022-08-02T15:22:50;33.00;83.20
15087;DHT22;7642;48.478;8.952;2022-08-02T15:25:16;32.90;81.70
15087;DHT22;7642;48.478;8.952;2022-08-02T15:27:43;32.30;84.00
15087;DHT22;7642;48.478;8.952;2022-08-02T15:30:09;32.50;85.20
15087;DHT22;7642;48.478;8.952;2022-08-02T15:32:35;32.70;83.00
15087;DHT22;7642;48.478;8.952;2022-08-02T15:35:01;32.60;83.60
15087;DHT22;7642;48.478;8.952;2022-08-02T15:37:26;32.70;83.70
15087;DHT22;7642;48.478;8.952;2022-08-02T15:39:52;32.40;83.00
15087;DHT22;7642;48.478;8.952;2022-08-02T15:42:19;32.10;84.10
15087;DHT22;7642;48.478;8.952;2022-08-02T15:44:44;32.00;85.30
15087;DHT22;7642;48.478;8.952;2022-08-02T15:47:10;32.00;86.20
15087;DHT22;7642;48.478;8.952;2022-08-02T15:49:36;32.00;84.60
15087;DHT22;7642;48.478;8.952;2022-08-02T15:52:02;31.70;85.00
15087;DHT22;7642;48.478;8.952;2022-08-02T15:54:28;31.80;85.40
15087;DHT22;7642;48.478;8.952;2022-08-02T15:56:54;31.60;84.70
15087;DHT22;7642;48.478;8.952;2022-08-02T15:59:19;31.00;84.10
15087;DHT22;7642;48.478;8.952;2022-08-02T16:01:45;31.00;85.00
15087;DHT22;7642;48.478;8.952;2022-08-02T16:04:12;31.20;85.90
15087;DHT22;7642;48.478;8.952;2022-08-02T16:06:37;31.30;86.30
15087;DHT22;7642;48.478;8.952;2022-08-02T16:09:03;31.30;85.70
15087;DHT22;7642;48.478;8.952;2022-08-02T16:11:29;31.40;85.60
15087;DHT22;7642;48.478;8.952;2022-08-02T16:13:55;31.30;90.20
15087;DHT22;7642;48.478;8.952;2022-08-02T16:16:31;31.40;86.10
15087;DHT22;7642;48.478;8.952;2022-08-02T16:18:58;31.10;85.90
15087;DHT22;7642;48.478;8.952;2022-08-02T16:21:24;31.20;88.40
15087;DHT22;7642;48.478;8.952;2022-08-02T16:23:51;31.10;86.80
15087;DHT22;7642;48.478;8.952;2022-08-02T16:26:18;30.90;86.90